sensor_id;sensor_type;location;lat;lon;timestamp;P1;durP1;ratioP1;P2;durP2;ratioP2
70829;SDS011;58451;51.550;7.208;2023-03-01T00:00:03;24.30;;;9.40;;
70829;SDS011;58451;51.550;7.208;2023-03-01T00:01:42;20.80;;;9.40;;
70829;SDS011;58451;51.550;7.208;2023-03-01T00:03:13;24.50;;;10.00;;
70829;SDS011;58451;51.550;7.208;2023-03-01T00:04:45;21.10;;;9.40;;
70829;SDS011;58451;51.550;7.208;2023-03-01T00:06:18;24.10;;;9.50;;
70829;SDS011;58451;51.550;7.208;2023-03-01T00:07:54;22.10;;;9.30;;
70829;SDS011;58451;51.550;7.208;2023-03-01T00:09:26;22.40;;;9.10;;
70829;SDS011;58451;51.550;7.208;2023-03-01T00:11:02;21.30;;;9.50;;
70829;SDS011;58451;51.550;7.208;2023-03-01T00:12:54;21.70;;;9.20;;
70829;SDS011;58451;51.550;7.208;2023-03-01T00:14:27;23.00;;;9.40;;
70829;SDS011;58451;51.550;7.208;2023-03-01T00:16:07;24.20;;;10.40;;
70829;SDS011;58451;51.550;7.208;2023-03-01T00:17:41;23.30;;;9.70;;
70829;SDS011;58451;51.550;7.208;2023-03-01T00:19:16;23.40;;;10.20;;
70829;SDS011;58451;51.550;7.208;2023-03-01T00:20:54;22.50;;;10.00;;
70829;SDS011;58451;51.550;7.208;2023-03-01T00:22:27;20.60;;;9.90;;
70829;SDS011;58451;51.550;7.208;2023-03-01T00:24:00;21.90;;;9.40;;
70829;SDS011;58451;51.550;7.208;2023-03-01T00:25:32;20.30;;;9.40;;
70829;SDS011;58451;51.550;7.208;2023-03-01T00:27:04;23.00;;;9.70;;
70829;SDS011;58451;51.550;7.208;2023-03-01T00:28:36;23.60;;;10.00;;
70829;SDS011;58451;51.550;7.208;2023-03-01T00:30:08;22.30;;;9.00;;
70829;SDS011;58451;51.550;7.208;2023-03-01T00:31:41;20.70;;;9.10;;
70829;SDS011;58451;51.550;7.208;2023-03-01T00:33:13;23.90;;;9.40;;
70829;SDS011;58451;51.550;7.208;2023-03-01T00:34:44;23.90;;;10.00;;
70829;SDS011;58451;51.550;7.208;2023-03-01T00:36:32;26.00;;;10.30;;
70829;SDS011;58451;51.550;7.208;2023-03-01T00:38:06;23.40;;;10.60;;
70829;SDS011;58451;51.550;7.208;2023-03-01T00:39:37;22.50;;;9.80;;
70829;SDS011;58451;51.550;7.208;2023-03-01T00:41:12;26.30;;;9.50;;
70829;SDS011;58451;51.550;7.208;2023-03-01T00:42:45;21.40;;;10.00;;
70829;SDS011;58451;51.550;7.208;2023-03-01T00:44:17;25.90;;;10.60;;
70829;SDS011;58451;51.550;7.208;2023-03-01T00:45:49;20.30;;;9.40;;
70829;SDS011;58451;51.550;7.208;2023-03-01T00:47:21;21.50;;;10.00;;
70829;SDS011;58451;51.550;7.208;2023-03-01T00:48:53;20.90;;;9.50;;
70829;SDS011;58451;51.550;7.208;2023-03-01T00:50:25;23.70;;;10.20;;
70829;SDS011;58451;51.550;7.208;2023-03-01T00:51:57;23.90;;;10.00;;
70829;SDS011;58451;51.550;7.208;2023-03-01T00:53:29;24.10;;;10.10;;
70829;SDS011;58451;51.550;7.208;2023-03-01T00:55:00;23.20;;;10.00;;
70829;SDS011;58451;51.550;7.208;2023-03-01T00:56:32;23.30;;;10.30;;
70829;SDS011;58451;51.550;7.208;2023-03-01T00:58:04;23.70;;;9.90;;
70829;SDS011;58451;51.550;7.208;2023-03-01T00:59:36;20.60;;;9.90;;
70829;SDS011;58451;51.550;7.208;2023-03-01T01:01:16;24.20;;;10.50;;
70829;SDS011;58451;51.550;7.208;2023-03-01T01:02:53;23.70;;;9.20;;
70829;SDS011;58451;51.550;7.208;2023-03-01T01:04:26;22.40;;;9.50;;
70829;SDS011;58451;51.550;7.208;2023-03-01T01:05:58;26.00;;;10.60;;
70829;SDS011;58451;51.550;7.208;2023-03-01T01:07:29;24.70;;;10.40;;
70829;SDS011;58451;51.550;7.208;2023-03-01T01:09:04;24.20;;;9.60;;
70829;SDS011;58451;51.550;7.208;2023-03-01T01:10:38;24.00;;;9.50;;
70829;SDS011;58451;51.550;7.208;2023-03-01T01:12:10;24.30;;;9.80;;
70829;SDS011;58451;51.550;7.208;2023-03-01T01:13:44;22.20;;;9.40;;
70829;SDS011;58451;51.550;7.208;2023-03-01T01:15:17;21.50;;;9.50;;
70829;SDS011;58451;51.550;7.208;2023-03-01T01:16:49;25.20;;;10.30;;
70829;SDS011;58451;51.550;7.208;2023-03-01T01:18:22;22.10;;;9.80;;
70829;SDS011;58451;51.550;7.208;2023-03-01T01:19:54;23.70;;;10.60;;
70829;SDS011;58451;51.550;7.208;2023-03-01T01:21:26;21.40;;;9.40;;
70829;SDS011;58451;51.550;7.208;2023-03-01T01:22:58;24.00;;;9.60;;
70829;SDS011;58451;51.550;7.208;2023-03-01T01:24:31;23.30;;;10.30;;
70829;SDS011;58451;51.550;7.208;2023-03-01T01:26:26;27.40;;;10.40;;
70829;SDS011;58451;51.550;7.208;2023-03-01T01:27:59;21.00;;;8.70;;
70829;SDS011;58451;51.550;7.208;2023-03-01T01:29:31;27.20;;;10.40;;
70829;SDS011;58451;51.550;7.208;2023-03-01T01:31:04;25.10;;;10.70;;
70829;SDS011;58451;51.550;7.208;2023-03-01T01:32:39;26.10;;;11.40;;
70829;SDS011;58451;51.550;7.208;2023-03-01T01:34:16;24.70;;;10.70;;
70829;SDS011;58451;51.550;7.208;2023-03-01T01:35:50;24.00;;;10.20;;
70829;SDS011;58451;51.550;7.208;2023-03-01T01:37:22;25.10;;;11.10;;
70829;SDS011;58451;51.550;7.208;2023-03-01T01:38:54;23.80;;;10.00;;
70829;SDS011;58451;51.550;7.208;2023-03-01T01:40:26;23.10;;;9.70;;
70829;SDS011;58451;51.550;7.208;2023-03-01T01:41:58;24.40;;;10.00;;
70829;SDS011;58451;51.550;7.208;2023-03-01T01:43:34;21.80;;;9.30;;
70829;SDS011;58451;51.550;7.208;2023-03-01T01:45:35;26.50;;;10.10;;
70829;SDS011;58451;51.550;7.208;2023-03-01T01:47:15;24.00;;;9.90;;
70829;SDS011;58451;51.550;7.208;2023-03-01T01:49:02;27.80;;;10.70;;
70829;SDS011;58451;51.550;7.208;2023-03-01T01:50:39;25.10;;;10.10;;
70829;SDS011;58451;51.550;7.208;2023-03-01T01:52:27;25.10;;;11.00;;
70829;SDS011;58451;51.550;7.208;2023-03-01T01:54:12;23.80;;;10.30;;
70829;SDS011;58451;51.550;7.208;2023-03-01T01:55:52;26.20;;;9.90;;
70829;SDS011;58451;51.550;7.208;2023-03-01T01:57:39;22.50;;;10.20;;
70829;SDS011;58451;51.550;7.208;2023-03-01T01:59:14;19.20;;;7.20;;
70829;SDS011;58451;51.550;7.208;2023-03-01T02:00:47;25.10;;;9.20;;
70829;SDS011;58451;51.550;7.208;2023-03-01T02:02:21;23.30;;;8.80;;
70829;SDS011;58451;51.550;7.208;2023-03-01T02:03:54;23.30;;;9.50;;
70829;SDS011;58451;51.550;7.208;2023-03-01T02:05:28;25.80;;;10.80;;
70829;SDS011;58451;51.550;7.208;2023-03-01T02:07:20;22.60;;;10.10;;
70829;SDS011;58451;51.550;7.208;2023-03-01T02:09:00;26.40;;;10.20;;
70829;SDS011;58451;51.550;7.208;2023-03-01T02:10:37;24.50;;;9.70;;
70829;SDS011;58451;51.550;7.208;2023-03-01T02:12:10;22.10;;;9.10;;
70829;SDS011;58451;51.550;7.208;2023-03-01T02:13:44;20.30;;;8.00;;
70829;SDS011;58451;51.550;7.208;2023-03-01T02:15:19;20.90;;;8.00;;
70829;SDS011;58451;51.550;7.208;2023-03-01T02:16:51;20.50;;;8.10;;
70829;SDS011;58451;51.550;7.208;2023-03-01T02:18:24;20.90;;;8.10;;
70829;SDS011;58451;51.550;7.208;2023-03-01T02:22:10;23.00;;;9.80;;
70829;SDS011;58451;51.550;7.208;2023-03-01T02:23:54;23.40;;;9.50;;
70829;SDS011;58451;51.550;7.208;2023-03-01T02:25:52;24.00;;;10.00;;
70829;SDS011;58451;51.550;7.208;2023-03-01T02:29:47;22.60;;;8.10;;
70829;SDS011;58451;51.550;7.208;2023-03-01T02:31:20;20.10;;;7.90;;
70829;SDS011;58451;51.550;7.208;2023-03-01T02:33:12;26.50;;;8.70;;
70829;SDS011;58451;51.550;7.208;2023-03-01T02:34:43;26.60;;;9.70;;
70829;SDS011;58451;51.550;7.208;2023-03-01T02:36:18;23.10;;;8.60;;
70829;SDS011;58451;51.550;7.208;2023-03-01T02:37:53;26.80;;;10.80;;
70829;SDS011;58451;51.550;7.208;2023-03-01T02:39:40;25.80;;;11.10;;
70829;SDS011;58451;51.550;7.208;2023-03-01T02:41:17;24.50;;;10.90;;
70829;SDS011;58451;51.550;7.208;2023-03-01T02:42:56;24.80;;;10.30;;
70829;SDS011;58451;51.550;7.208;2023-03-01T02:44:30;26.30;;;9.10;;
70829;SDS011;58451;51.550;7.208;2023-03-01T02:46:13;21.10;;;9.20;;
70829;SDS011;58451;51.550;7.208;2023-03-01T02:47:54;23.00;;;9.70;;
70829;SDS011;58451;51.550;7.208;2023-03-01T02:49:32;23.10;;;9.30;;
70829;SDS011;58451;51.550;7.208;2023-03-01T02:53:35;23.10;;;9.40;;
70829;SDS011;58451;51.550;7.208;2023-03-01T02:55:12;24.10;;;9.60;;
70829;SDS011;58451;51.550;7.208;2023-03-01T02:56:48;25.00;;;10.30;;
70829;SDS011;58451;51.550;7.208;2023-03-01T02:58:22;25.20;;;10.10;;
70829;SDS011;58451;51.550;7.208;2023-03-01T02:59:55;29.00;;;10.50;;
70829;SDS011;58451;51.550;7.208;2023-03-01T03:01:29;28.50;;;10.80;;
70829;SDS011;58451;51.550;7.208;2023-03-01T03:03:14;24.40;;;10.30;;
70829;SDS011;58451;51.550;7.208;2023-03-01T03:04:48;26.80;;;10.50;;
70829;SDS011;58451;51.550;7.208;2023-03-01T03:06:19;29.50;;;11.60;;
70829;SDS011;58451;51.550;7.208;2023-03-01T03:07:51;27.80;;;11.10;;
70829;SDS011;58451;51.550;7.208;2023-03-01T03:09:25;25.50;;;10.10;;
70829;SDS011;58451;51.550;7.208;2023-03-01T03:10:57;25.50;;;11.20;;
70829;SDS011;58451;51.550;7.208;2023-03-01T03:12:29;28.80;;;11.20;;
70829;SDS011;58451;51.550;7.208;2023-03-01T03:14:01;27.60;;;10.70;;
70829;SDS011;58451;51.550;7.208;2023-03-01T03:15:35;27.20;;;10.80;;
70829;SDS011;58451;51.550;7.208;2023-03-01T03:17:07;24.90;;;10.50;;
70829;SDS011;58451;51.550;7.208;2023-03-01T03:18:39;28.60;;;10.80;;
70829;SDS011;58451;51.550;7.208;2023-03-01T03:20:13;27.50;;;10.40;;
70829;SDS011;58451;51.550;7.208;2023-03-01T03:21:50;27.90;;;11.10;;
70829;SDS011;58451;51.550;7.208;2023-03-01T03:23:22;25.10;;;10.40;;
70829;SDS011;58451;51.550;7.208;2023-03-01T03:24:54;28.40;;;10.50;;
70829;SDS011;58451;51.550;7.208;2023-03-01T03:26:26;24.80;;;10.60;;
70829;SDS011;58451;51.550;7.208;2023-03-01T03:27:58;29.70;;;10.60;;
70829;SDS011;58451;51.550;7.208;2023-03-01T03:29:31;28.10;;;10.70;;
70829;SDS011;58451;51.550;7.208;2023-03-01T03:31:06;28.40;;;10.50;;
70829;SDS011;58451;51.550;7.208;2023-03-01T03:32:40;24.60;;;10.40;;
70829;SDS011;58451;51.550;7.208;2023-03-01T03:34:13;25.80;;;10.10;;
70829;SDS011;58451;51.550;7.208;2023-03-01T03:35:49;28.70;;;10.80;;
70829;SDS011;58451;51.550;7.208;2023-03-01T03:37:22;23.40;;;10.30;;
70829;SDS011;58451;51.550;7.208;2023-03-01T03:39:12;25.20;;;9.90;;
70829;SDS011;58451;51.550;7.208;2023-03-01T03:40:47;29.40;;;10.50;;
70829;SDS011;58451;51.550;7.208;2023-03-01T03:42:21;25.00;;;10.30;;
70829;SDS011;58451;51.550;7.208;2023-03-01T03:43:53;27.30;;;10.60;;
70829;SDS011;58451;51.550;7.208;2023-03-01T03:45:25;25.10;;;10.50;;
70829;SDS011;58451;51.550;7.208;2023-03-01T03:46:57;24.10;;;10.00;;
70829;SDS011;58451;51.550;7.208;2023-03-01T03:48:29;28.40;;;10.30;;
70829;SDS011;58451;51.550;7.208;2023-03-01T03:50:01;25.40;;;10.40;;
70829;SDS011;58451;51.550;7.208;2023-03-01T03:51:32;29.00;;;10.70;;
70829;SDS011;58451;51.550;7.208;2023-03-01T03:53:07;25.80;;;10.40;;
70829;SDS011;58451;51.550;7.208;2023-03-01T03:54:41;27.00;;;10.60;;
70829;SDS011;58451;51.550;7.208;2023-03-01T03:56:13;27.20;;;11.50;;
70829;SDS011;58451;51.550;7.208;2023-03-01T03:57:47;30.80;;;11.10;;
70829;SDS011;58451;51.550;7.208;2023-03-01T03:59:23;25.20;;;9.90;;
70829;SDS011;58451;51.550;7.208;2023-03-01T04:00:56;24.70;;;10.70;;
70829;SDS011;58451;51.550;7.208;2023-03-01T04:02:28;25.90;;;10.10;;
70829;SDS011;58451;51.550;7.208;2023-03-01T04:04:00;29.70;;;10.70;;
70829;SDS011;58451;51.550;7.208;2023-03-01T04:05:37;28.80;;;10.20;;
70829;SDS011;58451;51.550;7.208;2023-03-01T04:07:10;26.70;;;10.30;;
70829;SDS011;58451;51.550;7.208;2023-03-01T04:08:42;24.60;;;10.20;;
70829;SDS011;58451;51.550;7.208;2023-03-01T04:10:16;27.00;;;10.80;;
70829;SDS011;58451;51.550;7.208;2023-03-01T04:11:49;28.40;;;11.20;;
70829;SDS011;58451;51.550;7.208;2023-03-01T04:13:22;24.30;;;9.60;;
70829;SDS011;58451;51.550;7.208;2023-03-01T04:14:55;23.30;;;9.30;;
70829;SDS011;58451;51.550;7.208;2023-03-01T04:16:27;28.00;;;10.60;;
70829;SDS011;58451;51.550;7.208;2023-03-01T04:18:00;24.70;;;9.60;;
70829;SDS011;58451;51.550;7.208;2023-03-01T04:19:33;25.80;;;10.40;;
70829;SDS011;58451;51.550;7.208;2023-03-01T04:21:07;27.60;;;10.60;;
70829;SDS011;58451;51.550;7.208;2023-03-01T04:22:40;23.00;;;9.60;;
70829;SDS011;58451;51.550;7.208;2023-03-01T04:24:12;27.30;;;9.60;;
70829;SDS011;58451;51.550;7.208;2023-03-01T04:27:25;27.10;;;10.20;;
70829;SDS011;58451;51.550;7.208;2023-03-01T04:28:57;24.20;;;9.70;;
70829;SDS011;58451;51.550;7.208;2023-03-01T04:30:29;23.20;;;9.90;;
70829;SDS011;58451;51.550;7.208;2023-03-01T04:32:00;23.30;;;9.30;;
70829;SDS011;58451;51.550;7.208;2023-03-01T04:33:32;26.20;;;9.70;;
70829;SDS011;58451;51.550;7.208;2023-03-01T04:35:04;26.10;;;10.70;;
70829;SDS011;58451;51.550;7.208;2023-03-01T04:36:36;28.10;;;10.60;;
70829;SDS011;58451;51.550;7.208;2023-03-01T04:38:08;26.70;;;10.60;;
70829;SDS011;58451;51.550;7.208;2023-03-01T04:39:41;25.90;;;10.20;;
70829;SDS011;58451;51.550;7.208;2023-03-01T04:41:19;24.70;;;9.90;;
70829;SDS011;58451;51.550;7.208;2023-03-01T04:42:53;23.70;;;8.80;;
70829;SDS011;58451;51.550;7.208;2023-03-01T04:44:25;24.80;;;9.70;;
70829;SDS011;58451;51.550;7.208;2023-03-01T04:46:02;27.70;;;10.70;;
70829;SDS011;58451;51.550;7.208;2023-03-01T04:47:35;25.00;;;10.30;;
70829;SDS011;58451;51.550;7.208;2023-03-01T04:49:09;26.60;;;10.50;;
70829;SDS011;58451;51.550;7.208;2023-03-01T04:50:41;25.40;;;10.70;;
70829;SDS011;58451;51.550;7.208;2023-03-01T04:52:13;28.60;;;10.90;;
70829;SDS011;58451;51.550;7.208;2023-03-01T04:53:45;24.60;;;10.00;;
70829;SDS011;58451;51.550;7.208;2023-03-01T04:55:17;28.40;;;11.40;;
70829;SDS011;58451;51.550;7.208;2023-03-01T04:56:49;26.10;;;10.80;;
70829;SDS011;58451;51.550;7.208;2023-03-01T04:58:23;26.30;;;10.50;;
70829;SDS011;58451;51.550;7.208;2023-03-01T04:59:55;27.30;;;9.70;;
70829;SDS011;58451;51.550;7.208;2023-03-01T05:01:27;26.20;;;10.40;;
70829;SDS011;58451;51.550;7.208;2023-03-01T05:03:00;26.80;;;10.60;;
70829;SDS011;58451;51.550;7.208;2023-03-01T05:04:32;29.60;;;10.80;;
70829;SDS011;58451;51.550;7.208;2023-03-01T05:06:04;29.30;;;11.20;;
70829;SDS011;58451;51.550;7.208;2023-03-01T05:07:36;24.90;;;9.40;;
70829;SDS011;58451;51.550;7.208;2023-03-01T05:09:08;24.60;;;9.30;;
70829;SDS011;58451;51.550;7.208;2023-03-01T05:10:39;24.20;;;9.70;;
70829;SDS011;58451;51.550;7.208;2023-03-01T05:12:13;29.00;;;10.90;;
70829;SDS011;58451;51.550;7.208;2023-03-01T05:13:47;28.30;;;11.30;;
70829;SDS011;58451;51.550;7.208;2023-03-01T05:15:19;27.90;;;11.10;;
70829;SDS011;58451;51.550;7.208;2023-03-01T05:16:53;25.80;;;10.50;;
70829;SDS011;58451;51.550;7.208;2023-03-01T05:18:25;27.80;;;10.40;;
70829;SDS011;58451;51.550;7.208;2023-03-01T05:19:59;21.20;;;8.30;;
70829;SDS011;58451;51.550;7.208;2023-03-01T05:21:32;27.30;;;9.40;;
70829;SDS011;58451;51.550;7.208;2023-03-01T05:23:05;28.40;;;11.10;;
70829;SDS011;58451;51.550;7.208;2023-03-01T05:24:37;29.60;;;11.00;;
70829;SDS011;58451;51.550;7.208;2023-03-01T05:26:10;26.50;;;10.80;;
70829;SDS011;58451;51.550;7.208;2023-03-01T05:28:00;28.50;;;10.60;;
70829;SDS011;58451;51.550;7.208;2023-03-01T05:29:35;29.50;;;10.90;;
70829;SDS011;58451;51.550;7.208;2023-03-01T05:31:07;24.70;;;10.10;;
70829;SDS011;58451;51.550;7.208;2023-03-01T05:32:46;32.40;;;11.80;;
70829;SDS011;58451;51.550;7.208;2023-03-01T05:34:34;28.90;;;10.80;;
70829;SDS011;58451;51.550;7.208;2023-03-01T05:36:08;30.30;;;12.10;;
70829;SDS011;58451;51.550;7.208;2023-03-01T05:37:45;28.40;;;11.20;;
70829;SDS011;58451;51.550;7.208;2023-03-01T05:39:23;27.60;;;11.00;;
70829;SDS011;58451;51.550;7.208;2023-03-01T05:40:57;30.30;;;11.00;;
70829;SDS011;58451;51.550;7.208;2023-03-01T05:42:29;31.90;;;10.90;;
70829;SDS011;58451;51.550;7.208;2023-03-01T05:44:01;31.00;;;11.10;;
70829;SDS011;58451;51.550;7.208;2023-03-01T05:45:37;32.10;;;12.00;;
70829;SDS011;58451;51.550;7.208;2023-03-01T05:47:10;32.10;;;12.50;;
70829;SDS011;58451;51.550;7.208;2023-03-01T05:48:42;36.60;;;13.60;;
70829;SDS011;58451;51.550;7.208;2023-03-01T05:50:22;41.30;;;15.30;;
70829;SDS011;58451;51.550;7.208;2023-03-01T05:51:56;41.10;;;14.40;;
70829;SDS011;58451;51.550;7.208;2023-03-01T05:53:28;40.20;;;14.70;;
70829;SDS011;58451;51.550;7.208;2023-03-01T05:55:00;40.40;;;15.60;;
70829;SDS011;58451;51.550;7.208;2023-03-01T05:56:33;39.90;;;15.20;;
70829;SDS011;58451;51.550;7.208;2023-03-01T05:58:09;39.90;;;14.30;;
70829;SDS011;58451;51.550;7.208;2023-03-01T05:59:42;41.60;;;14.70;;
70829;SDS011;58451;51.550;7.208;2023-03-01T06:01:14;43.30;;;15.80;;
70829;SDS011;58451;51.550;7.208;2023-03-01T06:02:46;43.50;;;15.90;;
70829;SDS011;58451;51.550;7.208;2023-03-01T06:04:18;35.90;;;13.80;;
70829;SDS011;58451;51.550;7.208;2023-03-01T06:05:49;35.10;;;14.50;;
70829;SDS011;58451;51.550;7.208;2023-03-01T06:07:27;33.30;;;13.40;;
70829;SDS011;58451;51.550;7.208;2023-03-01T06:08:59;33.90;;;14.10;;
70829;SDS011;58451;51.550;7.208;2023-03-01T06:10:31;36.40;;;13.80;;
70829;SDS011;58451;51.550;7.208;2023-03-01T06:12:03;34.00;;;12.70;;
70829;SDS011;58451;51.550;7.208;2023-03-01T06:13:36;30.90;;;12.40;;
70829;SDS011;58451;51.550;7.208;2023-03-01T06:15:10;29.00;;;12.20;;
70829;SDS011;58451;51.550;7.208;2023-03-01T06:16:43;33.20;;;12.40;;
70829;SDS011;58451;51.550;7.208;2023-03-01T06:18:15;28.20;;;11.70;;
70829;SDS011;58451;51.550;7.208;2023-03-01T06:19:47;28.00;;;12.00;;
70829;SDS011;58451;51.550;7.208;2023-03-01T06:21:19;28.40;;;11.30;;
70829;SDS011;58451;51.550;7.208;2023-03-01T06:22:52;34.90;;;11.30;;
70829;SDS011;58451;51.550;7.208;2023-03-01T06:24:24;33.60;;;12.00;;
70829;SDS011;58451;51.550;7.208;2023-03-01T06:25:55;28.10;;;10.60;;
70829;SDS011;58451;51.550;7.208;2023-03-01T06:27:27;27.90;;;10.70;;
70829;SDS011;58451;51.550;7.208;2023-03-01T06:28:59;27.20;;;11.00;;
70829;SDS011;58451;51.550;7.208;2023-03-01T06:30:31;29.40;;;11.70;;
70829;SDS011;58451;51.550;7.208;2023-03-01T06:32:03;30.50;;;12.80;;
70829;SDS011;58451;51.550;7.208;2023-03-01T06:33:35;31.30;;;11.70;;
70829;SDS011;58451;51.550;7.208;2023-03-01T06:35:08;32.00;;;12.90;;
70829;SDS011;58451;51.550;7.208;2023-03-01T06:36:42;25.40;;;11.20;;
70829;SDS011;58451;51.550;7.208;2023-03-01T06:38:14;30.50;;;12.20;;
70829;SDS011;58451;51.550;7.208;2023-03-01T06:39:46;30.20;;;11.80;;
70829;SDS011;58451;51.550;7.208;2023-03-01T06:41:18;28.80;;;12.00;;
70829;SDS011;58451;51.550;7.208;2023-03-01T06:42:50;29.60;;;12.70;;
70829;SDS011;58451;51.550;7.208;2023-03-01T06:44:24;29.10;;;11.90;;
70829;SDS011;58451;51.550;7.208;2023-03-01T06:45:57;29.20;;;12.10;;
70829;SDS011;58451;51.550;7.208;2023-03-01T06:47:28;29.00;;;11.30;;
70829;SDS011;58451;51.550;7.208;2023-03-01T06:49:00;27.60;;;10.60;;
70829;SDS011;58451;51.550;7.208;2023-03-01T06:50:33;27.80;;;11.20;;
70829;SDS011;58451;51.550;7.208;2023-03-01T06:52:06;26.20;;;11.10;;
70829;SDS011;58451;51.550;7.208;2023-03-01T06:53:38;25.70;;;9.70;;
70829;SDS011;58451;51.550;7.208;2023-03-01T06:55:11;25.10;;;10.90;;
70829;SDS011;58451;51.550;7.208;2023-03-01T06:56:49;26.60;;;10.50;;
70829;SDS011;58451;51.550;7.208;2023-03-01T06:58:22;26.70;;;9.80;;
70829;SDS011;58451;51.550;7.208;2023-03-01T06:59:55;22.10;;;9.20;;
70829;SDS011;58451;51.550;7.208;2023-03-01T07:01:27;24.40;;;10.10;;
70829;SDS011;58451;51.550;7.208;2023-03-01T07:03:00;25.50;;;9.20;;
70829;SDS011;58451;51.550;7.208;2023-03-01T07:04:34;23.80;;;9.70;;
70829;SDS011;58451;51.550;7.208;2023-03-01T07:06:06;25.60;;;8.40;;
70829;SDS011;58451;51.550;7.208;2023-03-01T07:07:38;22.30;;;9.50;;
70829;SDS011;58451;51.550;7.208;2023-03-01T07:09:10;24.10;;;9.30;;
70829;SDS011;58451;51.550;7.208;2023-03-01T07:10:42;23.00;;;9.90;;
70829;SDS011;58451;51.550;7.208;2023-03-01T07:12:13;25.10;;;10.80;;
70829;SDS011;58451;51.550;7.208;2023-03-01T07:13:45;24.90;;;10.30;;
70829;SDS011;58451;51.550;7.208;2023-03-01T07:15:17;25.30;;;10.80;;
70829;SDS011;58451;51.550;7.208;2023-03-01T07:16:49;24.50;;;10.40;;
70829;SDS011;58451;51.550;7.208;2023-03-01T07:18:21;24.50;;;10.10;;
70829;SDS011;58451;51.550;7.208;2023-03-01T07:19:53;21.50;;;9.20;;
70829;SDS011;58451;51.550;7.208;2023-03-01T07:21:26;23.90;;;10.00;;
70829;SDS011;58451;51.550;7.208;2023-03-01T07:22:58;23.80;;;8.90;;
70829;SDS011;58451;51.550;7.208;2023-03-01T07:24:30;17.80;;;8.20;;
70829;SDS011;58451;51.550;7.208;2023-03-01T07:26:02;18.40;;;8.20;;
70829;SDS011;58451;51.550;7.208;2023-03-01T07:27:34;21.10;;;8.00;;
70829;SDS011;58451;51.550;7.208;2023-03-01T07:29:07;16.70;;;7.50;;
70829;SDS011;58451;51.550;7.208;2023-03-01T07:30:41;22.60;;;8.10;;
70829;SDS011;58451;51.550;7.208;2023-03-01T07:32:12;19.30;;;7.80;;
70829;SDS011;58451;51.550;7.208;2023-03-01T07:33:44;19.10;;;7.70;;
70829;SDS011;58451;51.550;7.208;2023-03-01T07:35:16;17.20;;;7.40;;
70829;SDS011;58451;51.550;7.208;2023-03-01T07:36:48;19.70;;;7.30;;
70829;SDS011;58451;51.550;7.208;2023-03-01T07:38:20;19.90;;;7.20;;
70829;SDS011;58451;51.550;7.208;2023-03-01T07:39:52;17.60;;;7.60;;
70829;SDS011;58451;51.550;7.208;2023-03-01T07:41:23;18.60;;;7.80;;
70829;SDS011;58451;51.550;7.208;2023-03-01T07:42:56;17.10;;;7.50;;
70829;SDS011;58451;51.550;7.208;2023-03-01T07:44:37;16.30;;;7.20;;
70829;SDS011;58451;51.550;7.208;2023-03-01T07:46:09;18.00;;;8.10;;
70829;SDS011;58451;51.550;7.208;2023-03-01T07:47:42;18.40;;;6.80;;
70829;SDS011;58451;51.550;7.208;2023-03-01T07:49:14;17.80;;;7.20;;
70829;SDS011;58451;51.550;7.208;2023-03-01T07:50:46;18.60;;;7.20;;
70829;SDS011;58451;51.550;7.208;2023-03-01T07:52:20;20.40;;;7.90;;
70829;SDS011;58451;51.550;7.208;2023-03-01T07:53:52;16.70;;;7.20;;
70829;SDS011;58451;51.550;7.208;2023-03-01T07:55:24;18.90;;;7.50;;
70829;SDS011;58451;51.550;7.208;2023-03-01T07:56:57;17.40;;;8.40;;
70829;SDS011;58451;51.550;7.208;2023-03-01T07:58:29;17.10;;;7.30;;
70829;SDS011;58451;51.550;7.208;2023-03-01T08:00:01;16.60;;;7.30;;
70829;SDS011;58451;51.550;7.208;2023-03-01T08:01:42;18.10;;;7.40;;
70829;SDS011;58451;51.550;7.208;2023-03-01T08:03:14;18.40;;;7.00;;
70829;SDS011;58451;51.550;7.208;2023-03-01T08:04:46;18.00;;;7.20;;
70829;SDS011;58451;51.550;7.208;2023-03-01T08:06:18;18.20;;;7.90;;
70829;SDS011;58451;51.550;7.208;2023-03-01T08:07:50;20.20;;;6.70;;
70829;SDS011;58451;51.550;7.208;2023-03-01T08:09:22;16.00;;;7.10;;
70829;SDS011;58451;51.550;7.208;2023-03-01T08:10:59;17.60;;;6.80;;
70829;SDS011;58451;51.550;7.208;2023-03-01T08:12:32;17.00;;;6.40;;
70829;SDS011;58451;51.550;7.208;2023-03-01T08:14:05;14.90;;;6.80;;
70829;SDS011;58451;51.550;7.208;2023-03-01T08:15:38;15.20;;;6.30;;
70829;SDS011;58451;51.550;7.208;2023-03-01T08:17:10;17.70;;;7.40;;
70829;SDS011;58451;51.550;7.208;2023-03-01T08:18:43;18.70;;;7.40;;
70829;SDS011;58451;51.550;7.208;2023-03-01T08:20:15;16.70;;;7.00;;
70829;SDS011;58451;51.550;7.208;2023-03-01T08:21:50;18.70;;;6.80;;
70829;SDS011;58451;51.550;7.208;2023-03-01T08:23:23;15.90;;;6.40;;
70829;SDS011;58451;51.550;7.208;2023-03-01T08:24:55;17.20;;;7.70;;
70829;SDS011;58451;51.550;7.208;2023-03-01T08:26:28;17.10;;;6.80;;
70829;SDS011;58451;51.550;7.208;2023-03-01T08:28:00;15.60;;;7.20;;
70829;SDS011;58451;51.550;7.208;2023-03-01T08:29:33;18.30;;;7.90;;
70829;SDS011;58451;51.550;7.208;2023-03-01T08:31:22;18.40;;;7.70;;
70829;SDS011;58451;51.550;7.208;2023-03-01T08:32:55;13.40;;;5.10;;
70829;SDS011;58451;51.550;7.208;2023-03-01T08:34:27;18.70;;;7.20;;
70829;SDS011;58451;51.550;7.208;2023-03-01T08:36:04;16.60;;;7.10;;
70829;SDS011;58451;51.550;7.208;2023-03-01T08:37:38;19.30;;;6.80;;
70829;SDS011;58451;51.550;7.208;2023-03-01T08:39:12;15.50;;;6.80;;
70829;SDS011;58451;51.550;7.208;2023-03-01T08:40:46;17.20;;;7.20;;
70829;SDS011;58451;51.550;7.208;2023-03-01T08:42:18;17.10;;;6.80;;
70829;SDS011;58451;51.550;7.208;2023-03-01T08:43:50;15.80;;;7.30;;
70829;SDS011;58451;51.550;7.208;2023-03-01T08:45:22;15.70;;;6.60;;
70829;SDS011;58451;51.550;7.208;2023-03-01T08:46:54;15.50;;;6.80;;
70829;SDS011;58451;51.550;7.208;2023-03-01T08:48:28;15.80;;;6.30;;
70829;SDS011;58451;51.550;7.208;2023-03-01T08:50:01;15.30;;;5.80;;
70829;SDS011;58451;51.550;7.208;2023-03-01T08:51:35;14.20;;;6.10;;
70829;SDS011;58451;51.550;7.208;2023-03-01T08:53:10;15.10;;;5.80;;
70829;SDS011;58451;51.550;7.208;2023-03-01T08:54:42;16.90;;;6.60;;
70829;SDS011;58451;51.550;7.208;2023-03-01T08:56:15;14.00;;;6.40;;
70829;SDS011;58451;51.550;7.208;2023-03-01T08:57:48;15.10;;;6.90;;
70829;SDS011;58451;51.550;7.208;2023-03-01T08:59:19;13.30;;;5.70;;
70829;SDS011;58451;51.550;7.208;2023-03-01T09:00:52;13.20;;;5.70;;
70829;SDS011;58451;51.550;7.208;2023-03-01T09:02:24;16.40;;;6.40;;
70829;SDS011;58451;51.550;7.208;2023-03-01T09:03:56;15.60;;;6.80;;
70829;SDS011;58451;51.550;7.208;2023-03-01T09:05:27;15.10;;;6.20;;
70829;SDS011;58451;51.550;7.208;2023-03-01T09:06:59;13.60;;;5.80;;
70829;SDS011;58451;51.550;7.208;2023-03-01T09:08:34;14.60;;;6.30;;
70829;SDS011;58451;51.550;7.208;2023-03-01T09:10:08;16.10;;;5.90;;
70829;SDS011;58451;51.550;7.208;2023-03-01T09:11:41;16.60;;;5.90;;
70829;SDS011;58451;51.550;7.208;2023-03-01T09:13:15;13.20;;;5.60;;
70829;SDS011;58451;51.550;7.208;2023-03-01T09:14:46;14.80;;;6.50;;
70829;SDS011;58451;51.550;7.208;2023-03-01T09:16:20;14.50;;;6.10;;
70829;SDS011;58451;51.550;7.208;2023-03-01T09:17:53;16.20;;;7.20;;
70829;SDS011;58451;51.550;7.208;2023-03-01T09:19:25;18.40;;;7.00;;
70829;SDS011;58451;51.550;7.208;2023-03-01T09:21:05;14.40;;;6.20;;
70829;SDS011;58451;51.550;7.208;2023-03-01T09:22:39;17.20;;;6.70;;